Time;durP1;ratioP1;P1;durP2;ratioP2;P2;SDS_P1;SDS_P2;PMS_P1;PMS_P2;Temp;Humidity;BMP_temperature;BMP_pressure;BME280_temperature;BME280_humidity;BME280_pressure;Samples;Min_cycle;Max_cycle;Signal;HPM_P1;HPM_P2
2020/12/07 00:02:21;;;;;;;3.17;2.33;;;17.00;50.20;;;;;;5056844;28;20032;-76
2020/12/07 00:04:47;;;;;;;3.60;2.47;;;16.90;50.10;;;;;;5072429;28;20119;-76
2020/12/07 00:07:13;;;;;;;2.85;2.50;;;16.90;50.10;;;;;;5054212;28;20134;-76
2020/12/07 00:09:39;;;;;;;3.75;2.50;;;16.90;50.20;;;;;;5071523;28;20047;-76
2020/12/07 00:12:25;;;;;;;3.50;2.45;;;17.00;50.30;;;;;;5060706;28;20115;-76
2020/12/07 00:15:11;;;;;;;2.97;2.17;;;16.90;50.20;;;;;;5075482;28;20051;-76
2020/12/07 00:17:37;;;;;;;3.33;2.25;;;16.90;50.20;;;;;;5057872;28;20048;-76
2020/12/07 00:20:03;;;;;;;3.58;2.50;;;16.90;50.20;;;;;;5056676;28;20123;-77
2020/12/07 00:22:30;;;;;;;4.43;2.67;;;16.90;50.30;;;;;;5088018;28;20036;-76
2020/12/07 00:24:56;;;;;;;3.25;2.30;;;16.90;50.30;;;;;;5065467;28;20052;-76
2020/12/07 00:27:23;;;;;;;2.78;2.10;;;16.90;50.30;;;;;;5073413;28;20471;-76
2020/12/07 00:29:50;;;;;;;3.67;2.35;;;16.90;50.30;;;;;;5089381;28;20475;-76
2020/12/07 00:32:35;;;;;;;4.70;2.28;;;16.90;50.30;;;;;;5074618;28;20063;-76
2020/12/07 00:35:02;;;;;;;3.00;2.40;;;16.90;50.40;;;;;;5056797;28;20554;-77
2020/12/07 00:37:48;;;;;;;3.72;2.33;;;16.80;50.30;;;;;;5061380;28;20048;-77
2020/12/07 00:40:13;;;;;;;2.88;2.30;;;16.90;50.40;;;;;;5037347;28;20046;-77
2020/12/07 00:42:59;;;;;;;3.17;2.33;;;16.90;50.40;;;;;;5062212;28;20075;-77
2020/12/07 00:45:25;;;;;;;3.90;2.40;;;16.90;50.40;;;;;;5040898;28;20557;-77
2020/12/07 00:47:50;;;;;;;2.95;2.50;;;16.90;50.40;;;;;;5057678;28;20032;-76
2020/12/07 00:50:16;;;;;;;4.05;2.42;;;16.80;50.30;;;;;;5055194;28;20044;-77
2020/12/07 00:52:42;;;;;;;3.85;2.50;;;16.90;50.40;;;;;;5072930;28;20102;-78
2020/12/07 00:55:08;;;;;;;2.88;2.35;;;16.90;50.50;;;;;;5090168;28;20086;-75
2020/12/07 00:57:34;;;;;;;3.28;2.63;;;16.90;50.50;;;;;;5071385;28;20075;-76
2020/12/07 00:59:59;;;;;;;3.03;2.42;;;16.80;50.40;;;;;;5079127;28;20055;-76
2020/12/07 01:02:45;;;;;;;4.50;2.65;;;16.90;50.50;;;;;;5053698;28;20035;-76
2020/12/07 01:05:11;;;;;;;3.33;2.53;;;16.80;50.50;;;;;;5076282;28;20032;-76
2020/12/07 01:07:37;;;;;;;3.30;2.50;;;16.70;50.50;;;;;;5069023;28;20115;-76
2020/12/07 01:10:03;;;;;;;3.15;2.38;;;16.80;50.50;;;;;;5052168;28;20376;-75
2020/12/07 01:12:29;;;;;;;4.07;2.40;;;16.80;50.60;;;;;;5071709;28;20483;-76
2020/12/07 01:14:54;;;;;;;3.90;2.70;;;16.90;50.70;;;;;;5060734;28;20048;-76
2020/12/07 01:17:20;;;;;;;3.15;2.55;;;16.80;50.70;;;;;;5075262;28;20038;-76
2020/12/07 01:20:06;;;;;;;3.60;2.42;;;16.80;50.70;;;;;;5053949;28;20048;-76
2020/12/07 01:22:31;;;;;;;3.45;2.40;;;16.80;50.70;;;;;;5054236;28;20058;-78
2020/12/07 01:24:58;;;;;;;3.22;2.55;;;16.80;50.70;;;;;;5068404;28;20650;-78
2020/12/07 01:27:24;;;;;;;3.83;2.60;;;16.90;50.80;;;;;;5090864;28;20475;-78
2020/12/07 01:29:49;;;;;;;3.17;2.35;;;16.80;50.70;;;;;;5054691;28;20046;-78
2020/12/07 01:32:15;;;;;;;5.20;2.63;;;16.80;51.40;;;;;;5071324;28;20040;-78
2020/12/07 01:34:41;;;;;;;5.07;2.53;;;16.80;51.40;;;;;;5069790;28;20039;-78
2020/12/07 01:37:08;;;;;;;2.95;2.38;;;16.80;50.80;;;;;;5090041;28;20048;-78
2020/12/07 01:39:34;;;;;;;3.33;2.28;;;16.80;50.90;;;;;;5090113;28;20035;-78
2020/12/07 01:42:19;;;;;;;3.90;2.40;;;16.80;51.50;;;;;;5047241;28;20048;-78
2020/12/07 01:45:05;;;;;;;3.08;2.60;;;16.80;50.90;;;;;;5045698;28;20051;-78
2020/12/07 01:47:31;;;;;;;3.45;2.30;;;16.80;50.90;;;;;;5050838;28;20024;-78
2020/12/07 01:49:56;;;;;;;4.65;2.70;;;16.80;50.90;;;;;;5074741;28;20044;-78
2020/12/07 01:52:23;;;;;;;3.63;2.22;;;16.80;50.90;;;;;;5071538;28;20169;-78
2020/12/07 01:54:49;;;;;;;3.08;2.50;;;16.80;51.00;;;;;;5072581;28;20043;-78
2020/12/07 01:57:35;;;;;;;4.10;2.50;;;16.80;51.00;;;;;;5070680;28;20048;-78
2020/12/07 02:00:04;;;;;;;2.55;2.10;;;16.80;51.00;;;;;;5055868;28;20078;-78
2020/12/07 02:02:30;;;;;;;3.15;2.40;;;16.80;51.00;;;;;;5069354;28;20384;-78
2020/12/07 02:05:16;;;;;;;2.92;2.15;;;16.80;51.00;;;;;;5058208;28;20071;-78
2020/12/07 02:07:41;;;;;;;3.40;2.15;;;16.70;50.90;;;;;;5071906;28;20059;-78
2020/12/07 02:10:27;;;;;;;3.08;2.17;;;16.80;51.00;;;;;;5059506;28;20056;-78
2020/12/07 02:12:52;;;;;;;3.50;2.38;;;16.70;50.90;;;;;;5087855;28;20051;-78
2020/12/07 02:15:18;;;;;;;3.65;2.38;;;16.80;51.00;;;;;;5089209;28;20071;-78
2020/12/07 02:18:04;;;;;;;3.30;2.38;;;16.80;51.00;;;;;;5045917;28;20052;-78
2020/12/07 02:20:50;;;;;;;2.63;2.13;;;16.80;51.00;;;;;;5060264;28;20113;-78
2020/12/07 02:23:16;;;;;;;2.47;2.15;;;16.80;51.00;;;;;;5072668;28;20036;-78
2020/12/07 02:25:42;;;;;;;3.10;2.30;;;16.80;51.00;;;;;;5069082;28;20111;-78
2020/12/07 02:28:07;;;;;;;2.95;2.25;;;16.80;51.00;;;;;;5087083;28;20043;-78
2020/12/07 02:30:53;;;;;;;2.30;2.10;;;16.80;51.10;;;;;;5061782;28;20040;-78
2020/12/07 02:33:19;;;;;;;5.18;2.83;;;16.80;51.10;;;;;;5054552;28;20493;-78
2020/12/07 02:36:08;;;;;;;2.70;2.10;;;16.80;51.10;;;;;;5059384;28;20048;-78
2020/12/07 02:38:35;;;;;;;3.83;2.47;;;16.80;51.10;;;;;;5068268;28;20048;-78
2020/12/07 02:41:00;;;;;;;3.10;2.40;;;16.80;51.10;;;;;;5084820;28;20059;-78
2020/12/07 02:43:26;;;;;;;3.15;2.58;;;16.80;51.10;;;;;;5068280;28;20081;-78
2020/12/07 02:45:52;;;;;;;3.80;2.40;;;16.80;51.10;;;;;;5055202;28;20465;-78
2020/12/07 02:48:37;;;;;;;3.67;2.40;;;16.80;51.10;;;;;;5044940;28;20043;-79
2020/12/07 02:51:03;;;;;;;3.15;2.42;;;16.80;51.10;;;;;;5070695;28;20028;-79
2020/12/07 02:53:29;;;;;;;2.65;2.40;;;16.80;51.10;;;;;;5069599;28;20040;-79
2020/12/07 02:55:54;;;;;;;3.15;2.30;;;16.70;51.10;;;;;;5086032;28;20036;-79
2020/12/07 02:58:40;;;;;;;2.65;2.30;;;16.80;51.20;;;;;;5057965;28;20052;-79
2020/12/07 03:01:26;;;;;;;2.83;2.38;;;16.70;51.70;;;;;;5101810;28;20506;-79
2020/12/07 03:04:11;;;;;;;3.38;2.53;;;16.70;51.10;;;;;;5059902;28;20185;-79
2020/12/07 03:06:57;;;;;;;3.70;2.38;;;16.80;51.20;;;;;;5071092;28;20050;-79
2020/12/07 03:09:23;;;;;;;3.08;2.42;;;16.80;51.20;;;;;;5069870;28;20060;-79
2020/12/07 03:11:48;;;;;;;2.80;2.20;;;16.70;51.20;;;;;;5054480;28;20107;-79
2020/12/07 03:14:14;;;;;;;2.78;2.40;;;16.70;51.20;;;;;;5054615;28;20039;-79
2020/12/07 03:17:00;;;;;;;3.60;2.60;;;16.80;51.20;;;;;;5087424;28;20048;-79
2020/12/07 03:19:45;;;;;;;2.72;2.33;;;16.80;51.20;;;;;;5075694;28;20070;-79
2020/12/07 03:22:11;;;;;;;3.90;2.33;;;16.70;51.20;;;;;;5053181;28;21840;-79
2020/12/07 03:24:37;;;;;;;3.53;2.35;;;16.70;51.20;;;;;;5054000;28;20150;-79
2020/12/07 03:27:03;;;;;;;3.08;2.42;;;16.70;51.20;;;;;;5070734;28;20036;-79
2020/12/07 03:29:48;;;;;;;3.28;2.53;;;16.70;51.20;;;;;;5046145;28;20135;-79
2020/12/07 03:32:14;;;;;;;3.30;2.42;;;16.70;51.20;;;;;;5086593;28;20185;-78
2020/12/07 03:34:39;;;;;;;2.67;2.35;;;16.60;51.20;;;;;;5087229;28;20055;-78
2020/12/07 03:37:05;;;;;;;4.40;2.30;;;16.70;51.30;;;;;;5073095;28;20039;-78
2020/12/07 03:39:51;;;;;;;2.72;2.20;;;16.70;51.30;;;;;;5058524;28;20498;-79
2020/12/07 03:42:37;;;;;;;3.88;2.30;;;16.70;51.30;;;;;;5101255;28;20044;-78
2020/12/07 03:45:03;;;;;;;3.20;2.50;;;16.70;51.30;;;;;;5069765;28;20036;-78
2020/12/07 03:47:29;;;;;;;2.58;2.30;;;16.70;51.30;;;;;;5053717;28;20039;-79
2020/12/07 03:49:55;;;;;;;3.20;2.47;;;16.70;51.30;;;;;;5055273;28;20044;-79
2020/12/07 03:52:20;;;;;;;2.47;2.22;;;16.70;51.30;;;;;;5052641;28;20107;-79
2020/12/07 03:54:46;;;;;;;3.83;2.38;;;16.70;51.30;;;;;;5054449;28;20032;-79
2020/12/07 03:57:32;;;;;;;2.97;2.10;;;16.70;51.30;;;;;;5049350;28;20046;-78
2020/12/07 03:59:57;;;;;;;2.78;2.30;;;16.70;51.30;;;;;;5074064;28;20107;-79
2020/12/07 04:02:47;;;;;;;3.65;2.20;;;16.70;51.40;;;;;;5075978;28;20105;-79
2020/12/07 04:05:38;;;;;;;2.78;2.45;;;16.70;51.40;;;;;;5090446;28;20055;-79
2020/12/07 04:08:04;;;;;;;2.50;2.00;;;16.70;51.40;;;;;;5058385;28;20045;-79
2020/12/07 04:10:29;;;;;;;2.53;2.17;;;16.70;51.40;;;;;;5090955;28;20046;-79
2020/12/07 04:12:55;;;;;;;3.75;2.05;;;16.70;51.40;;;;;;5055892;28;20131;-79
2020/12/07 04:15:21;;;;;;;3.33;2.03;;;16.70;51.50;;;;;;5091255;28;20063;-78
2020/12/07 04:18:07;;;;;;;2.65;1.90;;;16.70;51.40;;;;;;5063317;28;20423;-78
2020/12/07 04:20:32;;;;;;;2.65;2.00;;;16.70;51.40;;;;;;5074500;28;20032;-79
2020/12/07 04:23:18;;;;;;;2.35;1.95;;;16.70;51.40;;;;;;5078290;28;20078;-78
2020/12/07 04:26:04;;;;;;;2.10;1.90;;;16.70;51.40;;;;;;5061478;28;20062;-79
2020/12/07 04:28:29;;;;;;;2.20;2.00;;;16.70;51.40;;;;;;5058456;28;20468;-78
2020/12/07 04:30:55;;;;;;;2.85;1.75;;;16.70;51.50;;;;;;5072258;28;20388;-78
2020/12/07 04:33:40;;;;;;;2.65;2.00;;;16.70;51.50;;;;;;5062106;28;20076;-78
2020/12/07 04:36:06;;;;;;;2.35;1.95;;;16.70;51.50;;;;;;5072993;28;20107;-78
2020/12/07 04:38:32;;;;;;;2.55;1.80;;;16.70;51.50;;;;;;5074034;28;20419;-78
2020/12/07 04:41:18;;;;;;;2.03;1.83;;;16.70;51.50;;;;;;5077204;28;20074;-79
2020/12/07 04:44:04;;;;;;;2.65;2.10;;;16.70;51.50;;;;;;5074007;28;20044;-78
2020/12/07 04:46:29;;;;;;;2.15;1.90;;;16.70;51.50;;;;;;5073098;28;20032;-78
2020/12/07 04:49:15;;;;;;;2.05;1.85;;;16.70;52.10;;;;;;5041513;28;20051;-78
2020/12/07 04:51:41;;;;;;;2.58;2.00;;;16.70;51.50;;;;;;5053401;28;20544;-78
2020/12/07 04:54:06;;;;;;;2.22;2.00;;;16.70;51.50;;;;;;5027809;28;20056;-79
2020/12/07 04:56:33;;;;;;;3.25;2.10;;;16.70;51.50;;;;;;5068441;28;20055;-78
2020/12/07 04:58:58;;;;;;;1.98;1.70;;;16.60;51.40;;;;;;5067955;28;20410;-79
2020/12/07 05:01:24;;;;;;;2.10;1.90;;;16.70;51.50;;;;;;5069819;28;20040;-78
2020/12/07 05:03:50;;;;;;;2.50;1.92;;;16.70;51.50;;;;;;5072826;28;20036;-78
2020/12/07 05:06:18;;;;;;;2.53;2.03;;;16.70;51.50;;;;;;5068534;28;20032;-78
2020/12/07 05:09:04;;;;;;;2.13;1.90;;;16.70;51.50;;;;;;5037922;28;20044;-79
2020/12/07 05:11:29;;;;;;;3.17;1.88;;;16.60;51.40;;;;;;5070533;28;20387;-78
2020/12/07 05:16:28;;;;;;;2.03;1.83;;;16.70;51.50;;;;;;5070452;28;20039;-79
2020/12/07 05:19:14;;;;;;;4.32;1.75;;;16.70;51.50;;;;;;5056470;28;20526;-78
2020/12/07 05:21:59;;;;;;;2.25;1.65;;;16.70;51.50;;;;;;5028701;28;20376;-78
2020/12/07 05:24:25;;;;;;;1.98;1.75;;;16.60;51.40;;;;;;5086795;28;20049;-79
2020/12/07 05:27:11;;;;;;;3.80;1.80;;;16.60;51.40;;;;;;5053847;28;20048;-79
2020/12/07 05:29:51;;;;;;;2.25;1.40;;;16.70;51.50;;;;;;5068814;28;20405;-79
2020/12/07 05:32:16;;;;;;;1.80;1.63;;;16.60;51.50;;;;;;5069249;28;20041;-79
2020/12/07 05:34:42;;;;;;;2.53;1.80;;;16.70;51.60;;;;;;5070802;28;20046;-79
2020/12/07 05:37:08;;;;;;;1.90;1.70;;;16.60;51.50;;;;;;5067074;28;20135;-79
2020/12/07 05:39:54;;;;;;;1.77;1.67;;;16.60;51.60;;;;;;5041299;28;20055;-79
2020/12/07 05:42:20;;;;;;;2.45;1.70;;;16.70;51.60;;;;;;5035798;28;20048;-79
2020/12/07 05:45:06;;;;;;;1.55;1.45;;;16.60;51.60;;;;;;5040392;28;20399;-79
2020/12/07 05:47:32;;;;;;;2.13;1.67;;;16.60;51.60;;;;;;5067758;28;20052;-78
2020/12/07 05:50:18;;;;;;;1.88;1.45;;;16.60;51.60;;;;;;5072887;28;20133;-79
2020/12/07 05:53:00;;;;;;;2.58;1.40;;;16.90;51.20;;;;;;5055570;28;20073;-78
2020/12/07 05:55:45;;;;;;;2.08;1.63;;;17.10;50.60;;;;;;5078049;28;20040;-78
2020/12/07 05:58:11;;;;;;;1.58;1.30;;;17.40;49.90;;;;;;5067956;28;20054;-78
2020/12/07 06:00:58;;;;;;;2.58;1.52;;;17.60;49.40;;;;;;5047795;28;20043;-78
2020/12/07 06:03:44;;;;;;;1.55;1.33;;;17.80;49.00;;;;;;5048229;28;20100;-78
2020/12/07 06:06:09;;;;;;;1.60;1.50;;;18.00;49.40;;;;;;5086475;28;20032;-78
2020/12/07 06:08:55;;;;;;;1.95;1.40;;;18.10;48.30;;;;;;5046270;28;20788;-78
2020/12/07 06:11:21;;;;;;;2.20;1.60;;;18.40;47.90;;;;;;5074175;28;20060;-78
2020/12/07 06:14:06;;;;;;;1.42;1.30;;;18.50;47.60;;;;;;5046859;28;20374;-78
2020/12/07 06:16:54;;;;;;;1.58;1.35;;;18.60;47.40;;;;;;5060677;28;20097;-78
2020/12/07 06:19:20;;;;;;;1.65;1.40;;;18.70;47.60;;;;;;5056665;28;20056;-78
2020/12/07 06:22:00;;;;;;;4.05;1.50;;;18.90;46.70;;;;;;5038239;28;20115;-78
2020/12/07 06:24:39;;;;;;;2.00;1.42;;;19.10;46.30;;;;;;5053753;28;20036;-78
2020/12/07 06:27:24;;;;;;;4.38;1.60;;;19.30;45.90;;;;;;5054445;28;20047;-78
2020/12/07 06:29:57;;;;;;;5.60;1.60;;;19.40;46.00;;;;;;5071638;28;20113;-78
2020/12/07 06:32:23;;;;;;;1.67;1.17;;;19.50;45.70;;;;;;5069420;28;20062;-79
2020/12/07 06:34:51;;;;;;;1.40;1.20;;;19.60;45.40;;;;;;5054489;28;20527;-78
2020/12/07 06:37:17;;;;;;;2.42;1.45;;;19.70;45.10;;;;;;5076051;28;20032;-77
2020/12/07 06:39:43;;;;;;;2.33;1.50;;;19.80;44.90;;;;;;5060408;28;20502;-77
2020/12/07 06:42:09;;;;;;;2.20;1.42;;;19.90;44.80;;;;;;5055864;28;20032;-78
2020/12/07 06:44:40;;;;;;;1.30;1.20;;;19.90;44.70;;;;;;5055699;28;20120;-78
2020/12/07 06:47:17;;;;;;;2.22;1.40;;;20.00;44.70;;;;;;5072844;28;20143;-78
2020/12/07 06:49:52;;;;;;;2.75;1.35;;;19.90;44.70;;;;;;5072117;28;20055;-78
2020/12/07 06:52:40;;;;;;;2.60;1.40;;;19.90;44.80;;;;;;5049388;28;20047;-78
2020/12/07 06:55:26;;;;;;;2.17;1.27;;;19.80;44.90;;;;;;5062925;28;20071;-78
2020/12/07 06:57:52;;;;;;;1.63;1.30;;;19.80;45.00;;;;;;5089508;28;20118;-78
2020/12/07 07:00:21;;;;;;;2.40;1.40;;;19.70;45.20;;;;;;5072073;28;20043;-78
2020/12/07 07:02:51;;;;;;;2.00;1.30;;;19.60;45.10;;;;;;5070835;28;20051;-78
2020/12/07 07:05:19;;;;;;;1.75;1.17;;;19.60;45.30;;;;;;5103425;28;20044;-79
2020/12/07 07:07:45;;;;;;;1.55;1.30;;;19.50;45.40;;;;;;5073839;28;20118;-80
2020/12/07 07:10:11;;;;;;;1.70;1.30;;;19.50;45.60;;;;;;5071695;28;20070;-78
2020/12/07 07:12:38;;;;;;;1.38;1.27;;;19.50;45.70;;;;;;5075509;28;20051;-77
2020/12/07 07:15:05;;;;;;;1.70;1.25;;;19.40;45.80;;;;;;5071291;28;20024;-77
2020/12/07 07:17:31;;;;;;;3.38;1.30;;;19.40;46.00;;;;;;5071932;28;20036;-77
2020/12/07 07:20:17;;;;;;;1.58;1.20;;;19.30;46.10;;;;;;5044268;28;20441;-76
2020/12/07 07:22:45;;;;;;;1.70;1.20;;;19.20;46.30;;;;;;5079294;28;20182;-76
2020/12/07 07:25:49;;;;;;;2.80;1.50;;;19.20;46.40;;;;;;5054051;28;20502;-76
2020/12/07 07:28:15;;;;;;;1.67;1.20;;;19.10;46.50;;;;;;5062000;28;20110;-78
2020/12/07 07:30:41;;;;;;;1.70;1.25;;;19.10;46.50;;;;;;5083682;28;20501;-78
2020/12/07 07:33:06;;;;;;;2.38;1.38;;;19.10;46.50;;;;;;5064121;28;20129;-77
2020/12/07 07:35:52;;;;;;;3.20;1.40;;;19.00;46.60;;;;;;5082738;28;20035;-77
2020/12/07 07:38:18;;;;;;;1.92;1.30;;;18.90;46.80;;;;;;5094150;28;20503;-77
2020/12/07 07:40:43;;;;;;;5.63;1.38;;;18.90;47.00;;;;;;5058434;28;20033;-76
2020/12/07 07:43:11;;;;;;;6.93;1.58;;;18.90;47.20;;;;;;5075189;28;20467;-78
2020/12/07 07:45:38;;;;;;;6.40;1.52;;;18.90;47.40;;;;;;5042991;28;20036;-76
2020/12/07 07:48:16;;;;;;;3.80;1.50;;;18.70;47.60;;;;;;5058003;28;20545;-79
2020/12/07 07:54:31;;;;;;;3.00;1.40;;;18.60;47.90;;;;;;5082250;28;20394;-79
2020/12/07 08:00:51;;;;;;;1.63;1.30;;;18.50;48.30;;;;;;5063866;28;20047;-78
2020/12/07 08:17:12;;;;;;;2.15;1.20;;;18.30;49.00;;;;;;5019013;28;20081;-77
2020/12/07 08:19:38;;;;;;;3.40;1.48;;;18.10;49.00;;;;;;5040960;28;20053;-78
2020/12/07 08:22:12;;;;;;;2.45;1.30;;;18.20;49.10;;;;;;5009791;28;20129;-77
2020/12/07 08:25:01;;;;;;;2.75;1.33;;;18.10;49.10;;;;;;4992278;28;20406;-76
2020/12/07 08:27:47;;;;;;;3.25;1.30;;;18.10;49.20;;;;;;5023517;28;20128;-77
2020/12/07 08:30:13;;;;;;;2.78;1.25;;;18.00;49.30;;;;;;4995520;28;20074;-77
2020/12/07 08:33:10;;;;;;;3.85;1.40;;;18.00;49.30;;;;;;5025112;28;20042;-77
2020/12/07 08:35:37;;;;;;;3.65;1.30;;;17.90;49.40;;;;;;4987258;28;20073;-77
2020/12/07 08:38:27;;;;;;;3.35;1.60;;;18.00;49.50;;;;;;5009408;28;20058;-77
2020/12/07 08:41:20;;;;;;;6.57;1.55;;;17.90;49.60;;;;;;5010263;28;20152;-75
2020/12/07 08:44:07;;;;;;;3.50;1.35;;;17.90;49.70;;;;;;4995080;28;20072;-76
2020/12/07 08:46:53;;;;;;;1.88;1.30;;;17.90;49.80;;;;;;4999908;28;20489;-76
2020/12/07 08:49:19;;;;;;;2.42;1.50;;;17.80;49.80;;;;;;5056027;28;20052;-76
2020/12/07 08:52:05;;;;;;;2.15;1.00;;;17.80;49.90;;;;;;5078394;28;20044;-76
2020/12/07 08:54:32;;;;;;;2.15;1.60;;;17.80;50.00;;;;;;5092372;28;20402;-76
2020/12/07 08:56:57;;;;;;;4.72;1.42;;;17.80;50.00;;;;;;5092311;28;20499;-77
2020/12/07 08:59:23;;;;;;;3.35;1.35;;;17.70;50.00;;;;;;5059050;28;20055;-78
2020/12/07 09:01:49;;;;;;;3.15;1.25;;;17.70;50.00;;;;;;5074987;28;20051;-77
2020/12/07 09:04:14;;;;;;;2.88;1.30;;;17.70;50.10;;;;;;5075689;28;20064;-77
2020/12/07 09:06:40;;;;;;;5.78;1.20;;;17.70;50.10;;;;;;5074827;28;20089;-76
2020/12/07 09:09:07;;;;;;;3.05;1.60;;;17.70;50.10;;;;;;5072497;28;20092;-76
2020/12/07 09:11:34;;;;;;;2.95;1.25;;;17.60;50.00;;;;;;5074948;28;20467;-77
2020/12/07 09:14:19;;;;;;;3.00;1.42;;;17.60;50.00;;;;;;5092108;28;20453;-76
2020/12/07 09:16:45;;;;;;;1.63;1.10;;;17.60;50.10;;;;;;5074247;28;20076;-76
2020/12/07 09:19:11;;;;;;;2.72;1.40;;;17.60;50.10;;;;;;5090343;28;20036;-75
2020/12/07 09:21:36;;;;;;;3.70;1.40;;;17.60;50.10;;;;;;5072536;28;20047;-75
2020/12/07 09:24:02;;;;;;;2.03;1.45;;;17.60;50.20;;;;;;5071467;28;20052;-76
2020/12/07 09:26:28;;;;;;;1.88;1.23;;;17.60;50.20;;;;;;5072593;28;20459;-79
2020/12/07 09:28:53;;;;;;;2.55;1.40;;;17.60;50.20;;;;;;5058904;28;20040;-81
2020/12/07 09:31:19;;;;;;;4.15;1.48;;;17.50;50.20;;;;;;5041715;28;20059;-80
2020/12/07 09:33:47;;;;;;;1.48;1.20;;;17.60;50.30;;;;;;5074889;28;20039;-77
2020/12/07 09:36:12;;;;;;;1.80;1.30;;;17.50;50.30;;;;;;5056667;28;20048;-77
2020/12/07 09:38:38;;;;;;;5.65;1.60;;;17.50;50.30;;;;;;5072485;28;20043;-75
2020/12/07 09:41:04;;;;;;;3.88;1.45;;;17.50;50.30;;;;;;5054998;28;20083;-75
2020/12/07 09:43:30;;;;;;;4.78;1.50;;;17.50;50.40;;;;;;5054432;28;20053;-75
2020/12/07 09:45:56;;;;;;;7.95;1.55;;;17.40;50.40;;;;;;5073231;28;20048;-76
2020/12/07 09:48:43;;;;;;;4.78;1.40;;;17.50;50.40;;;;;;5076926;28;20036;-75
2020/12/07 09:51:11;;;;;;;1.85;1.40;;;17.50;50.40;;;;;;5071958;28;20048;-76
2020/12/07 09:53:37;;;;;;;2.70;1.30;;;17.40;50.40;;;;;;5055474;28;20075;-76
2020/12/07 09:56:24;;;;;;;4.35;1.50;;;17.40;50.40;;;;;;5062227;28;20044;-76
2020/12/07 09:58:50;;;;;;;2.72;1.40;;;17.40;50.50;;;;;;5054852;28;20390;-76
2020/12/07 10:01:36;;;;;;;6.97;1.75;;;17.40;50.50;;;;;;5056313;28;20048;-76
2020/12/07 10:04:21;;;;;;;2.15;1.30;;;17.40;50.50;;;;;;5062544;28;20075;-76
2020/12/07 10:06:47;;;;;;;1.77;1.30;;;17.40;50.60;;;;;;5081186;28;20075;-75
2020/12/07 10:09:13;;;;;;;3.35;1.38;;;17.40;50.50;;;;;;5057498;28;20032;-75
2020/12/07 10:11:58;;;;;;;3.95;1.35;;;17.40;50.60;;;;;;5026713;28;20406;-76
2020/12/07 10:14:24;;;;;;;3.97;1.70;;;17.30;50.50;;;;;;5091066;28;20044;-76
2020/12/07 10:17:10;;;;;;;2.25;1.30;;;17.30;50.60;;;;;;5058085;28;20055;-75
2020/12/07 10:19:36;;;;;;;4.65;1.40;;;17.30;50.50;;;;;;5072222;28;20056;-76
2020/12/07 10:22:05;;;;;;;1.75;1.40;;;17.30;50.60;;;;;;5071971;28;20122;-75
2020/12/07 10:24:50;;;;;;;3.65;1.40;;;17.30;50.60;;;;;;5040895;28;20110;-75
2020/12/07 10:27:16;;;;;;;2.38;1.40;;;17.20;50.50;;;;;;5073697;28;20064;-74
2020/12/07 10:30:02;;;;;;;2.05;1.30;;;17.30;50.60;;;;;;5046387;28;20497;-75
2020/12/07 10:32:48;;;;;;;3.30;1.40;;;17.30;50.70;;;;;;5036058;28;20036;-74
2020/12/07 10:35:13;;;;;;;3.33;1.40;;;17.30;50.70;;;;;;5073062;28;20093;-76
2020/12/07 10:37:59;;;;;;;1.70;1.10;;;17.30;50.80;;;;;;5049517;28;20130;-78
2020/12/07 10:40:25;;;;;;;3.85;1.40;;;17.30;50.80;;;;;;5055796;28;20147;-74
2020/12/07 10:43:10;;;;;;;2.38;1.25;;;17.30;50.90;;;;;;5046263;28;20142;-75
2020/12/07 10:45:36;;;;;;;2.97;1.23;;;17.30;51.00;;;;;;5087874;28;20099;-78
2020/12/07 10:48:02;;;;;;;1.60;1.00;;;17.30;51.00;;;;;;5071285;28;20048;-76
2020/12/07 10:50:28;;;;;;;3.47;1.40;;;17.30;51.10;;;;;;5050770;28;20063;-75
2020/12/07 10:52:53;;;;;;;1.92;1.10;;;17.30;51.20;;;;;;5068730;28;20337;-74
2020/12/07 10:55:42;;;;;;;2.10;1.30;;;17.20;51.20;;;;;;5056115;28;20395;-74
2020/12/07 10:58:08;;;;;;;1.75;1.20;;;17.30;51.50;;;;;;5053926;28;20036;-74
2020/12/07 11:00:54;;;;;;;3.58;1.08;;;17.20;51.50;;;;;;5064367;28;20048;-74
2020/12/07 11:03:40;;;;;;;4.75;1.00;;;17.10;51.60;;;;;;5083795;28;20114;-74
2020/12/07 11:06:21;;;;;;;6.65;1.30;;;17.30;51.80;;;;;;5041019;28;20090;-74
2020/12/07 11:09:09;;;;;;;2.00;1.10;;;17.20;51.80;;;;;;5018364;28;20487;-74
2020/12/07 11:11:35;;;;;;;4.35;1.17;;;17.30;51.90;;;;;;5055926;28;20048;-74
2020/12/07 11:14:00;;;;;;;1.70;1.00;;;17.20;52.00;;;;;;5040564;28;20450;-74
2020/12/07 11:16:26;;;;;;;3.28;1.02;;;17.20;52.00;;;;;;5055795;28;20051;-71
2020/12/07 11:18:52;;;;;;;2.97;1.25;;;17.20;52.10;;;;;;5054475;28;20045;-75
2020/12/07 11:21:18;;;;;;;4.03;1.02;;;17.20;52.20;;;;;;5070615;28;20045;-75
2020/12/07 11:24:03;;;;;;;2.60;1.20;;;17.20;52.20;;;;;;5072806;28;20048;-75
2020/12/07 11:26:29;;;;;;;5.10;1.10;;;17.20;52.30;;;;;;5071589;28;20059;-76
2020/12/07 11:28:55;;;;;;;3.65;1.10;;;17.20;52.30;;;;;;5056459;28;20036;-75
2020/12/07 11:31:40;;;;;;;3.95;1.05;;;17.20;52.40;;;;;;5069725;28;20075;-78
2020/12/07 11:34:06;;;;;;;2.55;0.93;;;17.20;52.40;;;;;;5054214;28;20044;-76
2020/12/07 11:36:32;;;;;;;1.73;1.02;;;17.20;52.50;;;;;;5088673;28;20048;-74
2020/12/07 11:44:18;;;;;;;4.72;1.10;;;17.20;52.60;;;;;;5065894;28;20041;-74
2020/12/07 11:47:06;;;;;;;2.38;1.10;;;17.20;52.70;;;;;;5057473;28;20040;-74
2020/12/07 11:49:32;;;;;;;2.47;1.00;;;17.10;52.60;;;;;;5073663;28;20052;-74
2020/12/07 11:52:18;;;;;;;2.20;1.20;;;17.10;52.60;;;;;;5039584;28;20052;-76
2020/12/07 11:55:04;;;;;;;2.95;1.00;;;17.10;52.60;;;;;;5064945;28;20040;-74
2020/12/07 11:57:30;;;;;;;2.85;1.10;;;17.10;52.60;;;;;;5074250;28;20494;-74
2020/12/07 12:00:15;;;;;;;5.32;1.35;;;17.20;52.70;;;;;;5077711;28;20055;-73
2020/12/07 12:02:41;;;;;;;2.63;1.30;;;17.10;52.70;;;;;;5076665;28;20472;-74
2020/12/07 12:05:07;;;;;;;4.60;1.20;;;17.10;52.80;;;;;;5075785;28;20126;-73
2020/12/07 12:07:32;;;;;;;1.85;1.30;;;17.10;52.80;;;;;;5092633;28;20032;-73
2020/12/07 12:10:18;;;;;;;4.20;1.50;;;17.10;52.80;;;;;;5058325;28;20044;-74
2020/12/07 12:12:44;;;;;;;5.22;1.30;;;17.10;52.90;;;;;;5072869;28;20091;-75
2020/12/07 12:15:10;;;;;;;2.58;1.20;;;17.00;52.90;;;;;;5092927;28;20044;-73
2020/12/07 12:17:36;;;;;;;3.58;1.20;;;17.10;53.00;;;;;;5075442;28;20052;-75
2020/12/07 12:20:22;;;;;;;2.22;1.00;;;17.10;53.00;;;;;;5070792;28;20449;-74
2020/12/07 12:23:08;;;;;;;3.67;1.00;;;17.00;52.90;;;;;;5065238;28;20050;-73
2020/12/07 12:25:33;;;;;;;2.78;1.40;;;17.10;53.00;;;;;;5094472;28;20036;-75
2020/12/07 12:27:59;;;;;;;2.33;0.98;;;17.10;53.10;;;;;;5076299;28;20071;-74
2020/12/07 12:30:25;;;;;;;3.88;1.00;;;17.10;53.10;;;;;;5093877;28;20085;-73
2020/12/07 12:32:50;;;;;;;2.45;1.00;;;17.10;53.00;;;;;;5058964;28;20040;-74
2020/12/07 12:35:16;;;;;;;2.80;1.27;;;17.10;53.00;;;;;;5057851;28;20044;-73
2020/12/07 12:37:42;;;;;;;2.13;0.95;;;17.10;53.00;;;;;;5094545;28;20043;-74
2020/12/07 12:40:27;;;;;;;5.53;1.15;;;17.10;53.10;;;;;;5064207;28;20419;-74
2020/12/07 12:43:13;;;;;;;2.25;0.90;;;17.10;53.10;;;;;;5091888;28;20043;-72
2020/12/07 12:45:39;;;;;;;1.42;0.63;;;17.10;53.10;;;;;;5073959;28;20129;-74
2020/12/07 12:48:04;;;;;;;4.78;1.00;;;17.00;53.00;;;;;;5073821;28;20040;-75
2020/12/07 12:50:50;;;;;;;2.38;1.10;;;17.10;53.00;;;;;;5055783;28;20048;-75
2020/12/07 12:53:38;;;;;;;1.83;0.88;;;17.10;53.10;;;;;;5057815;28;20055;-76
2020/12/07 12:56:07;;;;;;;7.05;0.98;;;17.10;53.00;;;;;;5034577;28;20123;-76
2020/12/07 12:58:33;;;;;;;4.15;0.88;;;17.10;53.10;;;;;;5037180;28;20060;-77
2020/12/07 13:01:19;;;;;;;1.80;0.90;;;17.10;53.10;;;;;;5060401;28;20515;-75
2020/12/07 13:03:45;;;;;;;2.08;0.80;;;17.10;53.00;;;;;;5072254;28;20048;-77
2020/12/07 13:06:35;;;;;;;1.80;0.90;;;17.00;53.00;;;;;;5075927;28;20151;-76
2020/12/07 13:09:01;;;;;;;1.92;0.95;;;17.10;53.10;;;;;;5071446;28;20500;-78
2020/12/07 13:11:48;;;;;;;1.55;0.90;;;17.00;53.00;;;;;;5014811;28;20523;-79
2020/12/07 13:14:14;;;;;;;2.15;0.80;;;17.10;53.10;;;;;;5020814;28;20492;-76
2020/12/07 13:17:05;;;;;;;1.67;0.77;;;17.00;53.10;;;;;;5037593;28;20064;-75
2020/12/07 13:19:31;;;;;;;5.18;1.02;;;17.10;53.10;;;;;;5019327;28;20051;-76
2020/12/07 13:29:48;;;;;;;2.65;0.85;;;17.00;53.10;;;;;;5041492;28;20037;-76
2020/12/07 13:32:34;;;;;;;2.85;0.90;;;17.00;53.10;;;;;;5042299;28;20040;-76
2020/12/07 13:35:20;;;;;;;1.67;0.80;;;16.90;53.10;;;;;;5024933;28;20036;-74
2020/12/07 13:38:06;;;;;;;2.60;0.88;;;17.00;53.10;;;;;;5058236;28;20051;-75
2020/12/07 13:40:52;;;;;;;1.20;0.80;;;17.00;53.10;;;;;;5071273;28;20044;-75
2020/12/07 13:43:17;;;;;;;3.30;0.77;;;16.90;53.10;;;;;;5034814;28;20060;-76
2020/12/07 13:46:03;;;;;;;2.38;0.90;;;17.00;53.10;;;;;;5072074;28;20044;-75
2020/12/07 13:48:29;;;;;;;2.42;0.57;;;16.90;53.10;;;;;;5052299;28;20047;-76
2020/12/07 13:50:54;;;;;;;2.28;1.05;;;17.00;53.10;;;;;;5056091;28;20040;-76
2020/12/07 13:53:42;;;;;;;2.28;0.70;;;17.00;53.10;;;;;;5063526;28;20059;-76
2020/12/07 13:56:07;;;;;;;2.95;0.77;;;17.00;53.00;;;;;;5072659;28;20037;-75